createdAt,value
2022-12-06T00:03:32.194Z,99147.91
2022-12-06T00:09:06.704Z,99146.80
2022-12-06T00:17:05.526Z,99137.51
2022-12-06T00:23:01.807Z,99129.30
2022-12-06T00:29:19.177Z,99129.48
2022-12-06T00:46:20.037Z,99109.31
2022-12-06T00:59:54.375Z,99117.77
2022-12-06T01:06:34.962Z,99105.62
2022-12-06T01:12:04.001Z,99104.95
2022-12-06T01:17:37.135Z,99094.81
2022-12-06T01:22:47.651Z,99092.45
2022-12-06T01:28:58.057Z,99094.10
2022-12-06T01:40:32.129Z,99072.81
2022-12-06T02:10:45.812Z,99040.10
2022-12-06T02:16:41.911Z,99028.52
2022-12-06T02:22:21.752Z,99016.59
2022-12-06T02:28:27.142Z,99006.39
2022-12-06T02:45:41.564Z,98982.05
2022-12-06T03:04:38.620Z,98960.91
2022-12-06T03:29:38.636Z,98934.28
2022-12-06T03:35:25.123Z,98941.14
2022-12-06T03:41:22.578Z,98950.06
2022-12-06T04:04:07.298Z,98921.52
2022-12-06T04:09:58.439Z,98919.41
2022-12-06T04:15:15.504Z,98915.42
2022-12-06T04:21:07.901Z,98900.08
2022-12-06T04:33:17.886Z,98888.32
2022-12-06T04:45:20.576Z,98879.85
2022-12-06T05:00:03.810Z,98875.94
2022-12-06T05:06:39.824Z,98863.55
2022-12-06T05:12:50.419Z,98867.53
2022-12-06T05:24:13.089Z,98855.40
2022-12-06T05:42:22.071Z,98854.20
2022-12-06T06:25:41.925Z,98826.50
2022-12-06T06:31:26.100Z,98835.08
2022-12-06T06:46:47.061Z,98819.78
2022-12-06T06:53:35.699Z,98813.95
2022-12-06T06:58:53.119Z,98815.44
2022-12-06T07:04:51.430Z,98812.77
2022-12-06T07:17:14.779Z,98797.56
2022-12-06T07:50:52.222Z,98789.95
2022-12-06T08:23:45.126Z,98744.36
2022-12-06T08:29:57.256Z,98745.77
2022-12-06T08:35:43.008Z,98748.65
2022-12-06T08:42:09.509Z,98744.64
2022-12-06T08:47:16.403Z,98757.44
2022-12-06T08:52:45.004Z,98760.51
2022-12-06T08:57:55.184Z,98759.04
2022-12-06T09:04:11.873Z,98757.55
2022-12-06T09:21:13.312Z,98747.76
2022-12-06T09:27:56.219Z,98741.48
2022-12-06T09:39:40.071Z,98732.00
2022-12-06T09:51:18.942Z,98719.66
2022-12-06T09:56:40.891Z,98715.39
2022-12-06T10:02:19.764Z,98701.47
2022-12-06T10:07:57.045Z,98690.88
2022-12-06T10:13:43.221Z,98684.98
2022-12-06T10:19:20.953Z,98688.74
2022-12-06T10:31:38.380Z,98683.12
2022-12-06T10:37:26.391Z,98678.86
2022-12-06T10:43:31.071Z,98673.02
2022-12-06T10:49:10.710Z,98663.80
2022-12-06T11:01:54.887Z,98656.00
2022-12-06T11:07:43.816Z,98642.50
2022-12-06T11:13:37.723Z,98632.47
2022-12-06T11:18:51.915Z,98630.03
2022-12-06T11:24:54.183Z,98637.69
2022-12-06T11:30:25.134Z,98633.45
2022-12-06T11:36:20.728Z,98628.00
2022-12-06T11:55:13.167Z,98611.56
2022-12-06T12:06:25.566Z,98620.47
2022-12-06T12:12:01.915Z,98619.07
2022-12-06T12:17:48.727Z,98610.41
2022-12-06T12:23:34.638Z,98598.30
2022-12-06T12:28:39.875Z,98602.42
2022-12-06T12:47:46.820Z,98581.45
2022-12-06T12:54:55.292Z,98579.71
2022-12-06T13:00:36.416Z,98580.89
2022-12-06T13:06:14.632Z,98577.44
2022-12-06T13:13:03.429Z,98575.39
2022-12-06T13:18:16.813Z,98581.55
2022-12-06T13:23:35.149Z,98578.67
2022-12-06T13:29:18.280Z,98576.86
2022-12-06T13:42:15.808Z,98569.59
2022-12-06T13:47:28.819Z,98571.02
2022-12-06T13:52:48.169Z,98577.77
2022-12-06T13:57:59.730Z,98576.91
2022-12-06T14:03:24.639Z,98583.76
2022-12-06T14:09:04.666Z,98581.73
2022-12-06T14:19:52.514Z,98581.63
2022-12-06T14:25:30.054Z,98574.74
2022-12-06T14:30:34.652Z,98572.40
2022-12-06T14:35:40.394Z,98565.84
2022-12-06T14:41:03.915Z,98572.59
2022-12-06T14:46:39.084Z,98573.11
2022-12-06T14:52:15.680Z,98577.42
2022-12-06T14:57:37.848Z,98576.83
2022-12-06T15:03:16.134Z,98583.44
2022-12-06T15:08:34.812Z,98582.33
2022-12-06T15:13:40.379Z,98580.70
2022-12-06T15:18:57.420Z,98582.30
2022-12-06T15:24:04.354Z,98587.15
2022-12-06T15:29:10.285Z,98586.52
2022-12-06T15:34:36.118Z,98583.73
2022-12-06T15:39:41.818Z,98581.83
2022-12-06T15:44:49.870Z,98582.27
2022-12-06T15:50:27.243Z,98576.78
2022-12-06T15:55:58.762Z,98573.34
2022-12-06T16:01:27.139Z,98569.28
2022-12-06T16:06:32.617Z,98569.42
2022-12-06T16:11:39.705Z,98568.39
2022-12-06T16:17:05.588Z,98564.00
2022-12-06T16:22:56.168Z,98556.63
2022-12-06T16:28:06.371Z,98556.08
2022-12-06T16:33:30.056Z,98560.42
2022-12-06T16:38:40.781Z,98557.23
2022-12-06T16:43:46.926Z,98555.30
2022-12-06T16:49:36.679Z,98555.19
2022-12-06T16:54:27.655Z,98552.98
2022-12-06T16:59:31.683Z,98545.83
2022-12-06T17:04:45.672Z,98552.45
2022-12-06T17:09:51.245Z,98557.48
2022-12-06T17:14:56.126Z,98558.27
2022-12-06T17:20:04.568Z,98565.49
2022-12-06T17:25:12.087Z,98569.22
2022-12-06T17:30:23.836Z,98565.86
2022-12-06T17:35:32.634Z,98562.59
2022-12-06T17:40:40.295Z,98563.04
2022-12-06T17:45:46.203Z,98569.73
2022-12-06T17:50:54.447Z,98567.28
2022-12-06T17:56:36.999Z,98571.50
2022-12-06T18:02:13.712Z,98563.20
2022-12-06T18:07:11.856Z,98559.65
2022-12-06T18:12:21.269Z,98559.43
2022-12-06T18:22:56.832Z,98560.60
2022-12-06T18:28:02.383Z,98559.77
2022-12-06T18:33:31.188Z,98562.19
2022-12-06T18:38:43.651Z,98560.96
2022-12-06T18:44:01.468Z,98557.86
2022-12-06T18:49:07.325Z,98554.80
2022-12-06T18:54:14.521Z,98552.40
2022-12-06T18:59:54.713Z,98551.73
2022-12-06T19:06:05.715Z,98551.17
2022-12-06T19:16:52.871Z,98560.66
2022-12-06T19:22:18.627Z,98555.52
2022-12-06T19:33:50.877Z,98549.77
2022-12-06T19:56:31.685Z,98549.96
2022-12-06T20:01:51.223Z,98547.00
2022-12-06T20:07:08.215Z,98552.09
2022-12-06T20:17:54.863Z,98553.22
2022-12-06T20:23:00.520Z,98552.50
2022-12-06T20:28:13.660Z,98550.49
2022-12-06T20:33:19.852Z,98548.08
2022-12-06T20:38:40.179Z,98546.23
2022-12-06T20:43:48.647Z,98549.09
2022-12-06T20:48:54.875Z,98542.70
2022-12-06T20:54:50.199Z,98543.17
2022-12-06T20:59:54.968Z,98546.52
2022-12-06T21:04:59.219Z,98551.60
2022-12-06T21:10:05.045Z,98561.98
2022-12-06T21:15:11.574Z,98558.67
2022-12-06T21:20:17.056Z,98559.23
2022-12-06T21:31:11.376Z,98573.81
2022-12-06T21:36:27.792Z,98572.17
2022-12-06T21:41:43.313Z,98577.80
2022-12-06T21:47:00.412Z,98579.27
2022-12-06T21:52:12.468Z,98573.41
2022-12-06T21:57:16.945Z,98573.73
2022-12-06T22:02:23.435Z,98574.75
2022-12-06T22:07:37.277Z,98578.98
2022-12-06T22:12:41.546Z,98584.52
2022-12-06T22:17:50.167Z,98580.55
2022-12-06T22:22:55.890Z,98585.52
2022-12-06T22:28:02.744Z,98579.17
2022-12-06T22:33:06.727Z,98584.79
2022-12-06T22:38:25.711Z,98584.14
2022-12-06T22:43:37.404Z,98587.75
2022-12-06T22:49:12.566Z,98582.30
2022-12-06T22:54:19.039Z,98581.39
2022-12-06T22:59:31.720Z,98575.54
2022-12-06T23:10:35.948Z,98571.09
2022-12-06T23:16:01.799Z,98574.73
2022-12-06T23:21:13.080Z,98568.40
2022-12-06T23:26:24.633Z,98565.80
2022-12-06T23:32:03.963Z,98565.00
2022-12-06T23:37:23.635Z,98556.55
2022-12-06T23:42:39.000Z,98546.52
2022-12-06T23:47:42.176Z,98548.88
2022-12-06T23:52:52.832Z,98544.29
